createdAt,value
2018-07-20T00:00:07.154Z,25.05
2018-07-20T00:02:36.389Z,25.14
2018-07-20T00:05:06.477Z,25.19
2018-07-20T00:07:35.941Z,25.15
2018-07-20T00:10:05.366Z,25.17
2018-07-20T00:12:34.652Z,25.15
2018-07-20T00:15:03.981Z,25.12
2018-07-20T00:17:33.231Z,25.09
2018-07-20T00:20:02.512Z,25.09
2018-07-20T00:22:31.820Z,25.07
2018-07-20T00:25:01.065Z,25.06
2018-07-20T00:27:30.417Z,25.04
2018-07-20T00:29:59.666Z,25.04
2018-07-20T00:32:29.023Z,24.98
2018-07-20T00:34:58.355Z,24.96
2018-07-20T00:37:27.523Z,24.95
2018-07-20T00:39:56.760Z,24.93
2018-07-20T00:42:26.110Z,24.90
2018-07-20T00:44:55.665Z,24.87
2018-07-20T00:47:24.987Z,24.82
2018-07-20T00:49:54.394Z,24.77
2018-07-20T00:52:23.678Z,24.74
2018-07-20T00:54:53.081Z,24.73
2018-07-20T00:57:22.382Z,24.70
2018-07-20T00:59:51.682Z,24.66
2018-07-20T01:02:21.495Z,24.59
2018-07-20T01:04:51.367Z,24.45
2018-07-20T01:07:20.610Z,24.39
2018-07-20T01:09:50.017Z,24.36
2018-07-20T01:12:19.285Z,24.35
2018-07-20T01:14:48.498Z,24.34
2018-07-20T01:17:17.799Z,24.33
2018-07-20T01:19:47.024Z,24.30
2018-07-20T01:22:16.301Z,24.25
2018-07-20T01:24:45.724Z,24.21
2018-07-20T01:27:15.013Z,24.18
2018-07-20T01:29:44.420Z,24.14
2018-07-20T01:32:13.818Z,24.12
2018-07-20T01:34:43.121Z,24.09
2018-07-20T01:37:12.420Z,24.06
2018-07-20T01:39:41.864Z,23.99
2018-07-20T01:42:11.022Z,23.96
2018-07-20T01:44:40.425Z,23.94
2018-07-20T01:47:09.830Z,23.94
2018-07-20T01:49:39.218Z,23.91
2018-07-20T01:52:08.438Z,23.90
2018-07-20T01:54:37.719Z,23.87
2018-07-20T01:57:07.161Z,23.85
2018-07-20T01:59:36.389Z,23.80
2018-07-20T02:02:05.672Z,23.78
2018-07-20T02:04:35.239Z,23.71
2018-07-20T02:07:04.539Z,23.68
2018-07-20T02:09:33.843Z,23.63
2018-07-20T02:12:03.235Z,23.60
2018-07-20T02:14:33.010Z,23.57
2018-07-20T02:17:02.396Z,23.54
2018-07-20T02:19:31.848Z,23.51
2018-07-20T02:22:01.270Z,23.47
2018-07-20T02:24:30.626Z,23.45
2018-07-20T02:26:59.976Z,23.31
2018-07-20T02:29:29.222Z,23.20
2018-07-20T02:31:58.573Z,23.17
2018-07-20T02:34:27.832Z,23.18
2018-07-20T02:36:57.082Z,23.07
2018-07-20T02:39:26.335Z,22.83
2018-07-20T02:41:55.567Z,22.59
2018-07-20T02:44:24.869Z,22.53
2018-07-20T02:46:54.385Z,22.65
2018-07-20T02:49:23.650Z,22.75
2018-07-20T02:51:53.009Z,22.78
2018-07-20T02:54:22.251Z,22.82
2018-07-20T02:56:51.604Z,22.84
2018-07-20T02:59:20.853Z,22.84
2018-07-20T03:01:50.211Z,22.79
2018-07-20T03:04:19.532Z,22.77
2018-07-20T03:06:49.086Z,22.69
2018-07-20T03:09:18.387Z,22.50
2018-07-20T03:11:47.912Z,22.42
2018-07-20T03:14:17.241Z,22.30
2018-07-20T03:16:46.510Z,22.14
2018-07-20T03:19:15.954Z,22.03
2018-07-20T03:21:45.199Z,22.12
2018-07-20T03:24:14.757Z,22.23
2018-07-20T03:26:44.005Z,22.31
2018-07-20T03:29:13.393Z,22.41
2018-07-20T03:31:42.704Z,22.48
2018-07-20T03:34:12.010Z,22.54
2018-07-20T03:36:41.430Z,22.56
2018-07-20T03:39:11.333Z,22.56
2018-07-20T03:41:40.619Z,22.47
2018-07-20T03:44:09.969Z,22.44
2018-07-20T03:46:39.329Z,22.39
2018-07-20T03:49:08.603Z,22.37
2018-07-20T03:51:38.031Z,22.22
2018-07-20T03:54:07.390Z,22.26
2018-07-20T03:56:36.721Z,22.29
2018-07-20T03:59:05.999Z,22.31
2018-07-20T04:01:35.238Z,22.13
2018-07-20T04:04:04.526Z,22.05
2018-07-20T04:06:33.828Z,22.00
2018-07-20T04:09:03.137Z,22.00
2018-07-20T04:11:32.534Z,21.96
2018-07-20T04:14:01.901Z,21.93
2018-07-20T04:16:31.159Z,21.89
2018-07-20T04:19:00.497Z,21.75
2018-07-20T04:21:29.861Z,21.75
2018-07-20T04:23:59.103Z,21.69
2018-07-20T04:26:28.381Z,21.69
2018-07-20T04:28:57.648Z,21.77
2018-07-20T04:31:26.958Z,21.84
2018-07-20T04:33:56.518Z,21.88
2018-07-20T04:36:25.837Z,21.88
2018-07-20T04:38:55.125Z,21.97
2018-07-20T04:41:24.118Z,21.87
2018-07-20T04:43:53.115Z,21.72
2018-07-20T04:46:22.095Z,21.68
2018-07-20T04:48:51.093Z,21.74
2018-07-20T04:51:20.087Z,21.70
2018-07-20T04:53:49.049Z,21.69
2018-07-20T04:56:18.105Z,21.86
2018-07-20T04:58:47.529Z,22.02
2018-07-20T05:01:16.810Z,22.06
2018-07-20T05:03:46.166Z,22.01
2018-07-20T05:06:15.431Z,22.12
2018-07-20T05:08:44.695Z,22.20
2018-07-20T05:11:14.042Z,22.17
2018-07-20T05:13:43.394Z,22.04
2018-07-20T05:16:12.730Z,22.19
2018-07-20T05:18:42.011Z,22.24
2018-07-20T05:21:11.323Z,22.40
2018-07-20T05:23:40.729Z,22.61
2018-07-20T05:26:10.025Z,22.82
2018-07-20T05:28:39.867Z,23.16
2018-07-20T05:31:09.120Z,23.33
2018-07-20T05:33:38.574Z,23.18
2018-07-20T05:36:07.959Z,23.27
2018-07-20T05:38:37.271Z,23.30
2018-07-20T05:41:06.521Z,23.45
2018-07-20T05:43:35.951Z,23.70
2018-07-20T05:46:05.214Z,24.20
2018-07-20T05:48:34.662Z,25.10
2018-07-20T05:51:04.022Z,26.21
2018-07-20T05:53:33.363Z,26.55
2018-07-20T05:56:02.600Z,26.17
2018-07-20T05:58:31.889Z,26.15
2018-07-20T06:01:01.225Z,26.09
2018-07-20T06:03:30.461Z,26.15
2018-07-20T06:05:59.717Z,26.13
2018-07-20T06:08:29.057Z,26.72
2018-07-20T06:10:58.430Z,27.12
2018-07-20T06:13:27.667Z,27.51
2018-07-20T06:15:56.930Z,27.60
2018-07-20T06:18:26.168Z,28.77
2018-07-20T06:20:55.438Z,30.10
2018-07-20T06:23:24.955Z,28.58
2018-07-20T06:25:54.259Z,28.20
2018-07-20T06:28:23.573Z,27.96
2018-07-20T06:30:52.942Z,28.08
2018-07-20T06:33:22.279Z,27.99
2018-07-20T06:35:51.665Z,27.91
2018-07-20T06:38:20.995Z,28.57
2018-07-20T06:40:50.261Z,28.07
2018-07-20T06:43:19.570Z,28.78
2018-07-20T06:45:48.838Z,29.37
2018-07-20T06:48:18.544Z,29.96
2018-07-20T06:50:47.764Z,31.38
2018-07-20T06:53:16.771Z,32.11
2018-07-20T06:55:45.743Z,32.49
2018-07-20T06:58:14.964Z,33.17
2018-07-20T07:00:43.910Z,34.30
2018-07-20T07:03:13.234Z,33.60
2018-07-20T07:05:42.631Z,33.73
2018-07-20T07:08:11.881Z,33.40
2018-07-20T07:10:41.241Z,33.49
2018-07-20T07:13:10.774Z,33.51
2018-07-20T07:15:40.118Z,31.83
2018-07-20T07:18:09.361Z,32.06
2018-07-20T07:20:38.740Z,31.59
2018-07-20T07:23:08.003Z,32.11
2018-07-20T07:25:37.350Z,32.21
2018-07-20T07:28:07.210Z,32.15
2018-07-20T07:30:36.557Z,33.01
2018-07-20T07:33:05.922Z,33.11
2018-07-20T07:35:35.181Z,33.39
2018-07-20T07:38:04.497Z,32.92
2018-07-20T07:40:33.871Z,32.87
2018-07-20T07:43:03.182Z,32.46
2018-07-20T07:45:32.571Z,32.19
2018-07-20T07:48:01.801Z,32.18
2018-07-20T07:50:30.995Z,32.08
2018-07-20T07:53:00.486Z,31.82
2018-07-20T07:55:29.782Z,30.80
2018-07-20T07:57:59.210Z,30.96
2018-07-20T08:00:29.609Z,31.38
2018-07-20T08:02:59.014Z,31.49
2018-07-20T08:05:28.569Z,31.99
2018-07-20T08:07:57.950Z,32.31
2018-07-20T08:10:27.364Z,32.53
2018-07-20T08:12:56.770Z,32.60
2018-07-20T08:15:26.222Z,32.70
2018-07-20T08:17:55.551Z,31.54
2018-07-20T08:20:24.840Z,31.97
2018-07-20T08:22:54.291Z,31.60
2018-07-20T08:25:23.737Z,30.81
2018-07-20T08:27:53.162Z,31.34
2018-07-20T08:30:22.674Z,32.31
2018-07-20T08:32:51.967Z,32.63
2018-07-20T08:35:21.271Z,32.82
2018-07-20T08:37:50.691Z,31.61
2018-07-20T08:40:20.054Z,31.90
2018-07-20T08:42:49.492Z,32.25
2018-07-20T08:45:18.870Z,32.52
2018-07-20T08:47:48.181Z,32.86
2018-07-20T08:50:17.444Z,32.44
2018-07-20T08:52:46.945Z,33.12
2018-07-20T08:55:16.197Z,32.64
2018-07-20T08:57:45.600Z,32.68
2018-07-20T09:00:14.942Z,33.13
2018-07-20T09:02:44.210Z,33.97
2018-07-20T09:05:13.470Z,33.75
2018-07-20T09:07:42.982Z,32.44
2018-07-20T09:10:12.542Z,32.76
2018-07-20T09:12:41.914Z,31.72
2018-07-20T09:15:11.131Z,33.33
2018-07-20T09:17:40.383Z,34.31
2018-07-20T09:20:09.833Z,34.17
2018-07-20T09:22:39.194Z,34.55
2018-07-20T09:25:08.473Z,34.86
2018-07-20T09:27:37.441Z,34.64
2018-07-20T09:30:06.434Z,35.12
2018-07-20T09:32:35.378Z,32.76
2018-07-20T09:35:04.438Z,34.10
2018-07-20T09:37:33.890Z,34.92
2018-07-20T09:40:03.213Z,33.92
2018-07-20T09:42:32.490Z,34.51
2018-07-20T09:45:01.774Z,34.70
2018-07-20T09:47:31.074Z,34.74
2018-07-20T09:50:00.502Z,35.14
2018-07-20T09:52:29.941Z,35.36
2018-07-20T09:54:59.201Z,35.97
2018-07-20T09:57:28.494Z,35.81
2018-07-20T09:59:57.832Z,35.80
2018-07-20T10:02:27.603Z,34.31
2018-07-20T10:04:57.448Z,35.55
2018-07-20T10:07:27.178Z,35.60
2018-07-20T10:09:56.451Z,36.10
2018-07-20T10:12:25.734Z,36.80
2018-07-20T10:14:55.062Z,36.37
2018-07-20T10:17:24.330Z,36.39
2018-07-20T10:19:53.758Z,36.30
2018-07-20T10:22:27.644Z,34.37
2018-07-20T10:24:57.004Z,35.99
2018-07-20T10:27:26.774Z,36.46
2018-07-20T10:29:56.072Z,36.81
2018-07-20T10:32:25.444Z,37.51
2018-07-20T10:34:54.878Z,38.06
2018-07-20T10:37:24.220Z,39.63
2018-07-20T10:39:53.690Z,39.82
2018-07-20T10:42:23.051Z,37.53
2018-07-20T10:44:52.389Z,35.37
2018-07-20T10:47:21.821Z,35.82
2018-07-20T10:49:51.091Z,36.15
2018-07-20T10:52:20.374Z,37.10
2018-07-20T10:54:49.664Z,37.10
2018-07-20T10:57:19.159Z,37.46
2018-07-20T10:59:48.663Z,37.10
2018-07-20T11:02:19.002Z,36.72
2018-07-20T11:04:48.567Z,35.26
2018-07-20T11:07:17.802Z,35.82
2018-07-20T11:09:47.149Z,36.08
2018-07-20T11:12:16.506Z,36.94
2018-07-20T11:14:45.927Z,35.78
2018-07-20T11:17:15.130Z,35.59
2018-07-20T11:19:44.430Z,36.01
2018-07-20T11:22:13.784Z,35.60
2018-07-20T11:24:43.081Z,35.29
2018-07-20T11:27:12.312Z,36.62
2018-07-20T11:29:41.654Z,36.87
2018-07-20T11:32:10.926Z,36.90
2018-07-20T11:34:40.550Z,37.24
2018-07-20T11:37:09.792Z,36.59
2018-07-20T11:39:38.970Z,37.19
2018-07-20T11:42:08.192Z,37.55
2018-07-20T11:44:37.480Z,37.54
2018-07-20T11:47:06.730Z,37.52
2018-07-20T11:49:36.170Z,37.94
2018-07-20T11:52:05.403Z,36.91
2018-07-20T11:54:34.853Z,36.22
2018-07-20T11:57:04.111Z,35.88
2018-07-20T11:59:33.467Z,35.80
2018-07-20T12:02:02.929Z,36.22
2018-07-20T12:04:32.354Z,36.94
2018-07-20T12:07:01.691Z,37.34
2018-07-20T12:09:31.085Z,36.43
2018-07-20T12:12:00.338Z,37.27
2018-07-20T12:14:29.676Z,38.17
2018-07-20T12:16:58.934Z,36.05
2018-07-20T12:19:28.141Z,36.82
2018-07-20T12:21:57.458Z,37.57
2018-07-20T12:24:26.841Z,36.50
2018-07-20T12:26:56.115Z,34.87
2018-07-20T12:29:25.534Z,35.83
2018-07-20T12:31:55.021Z,36.90
2018-07-20T12:34:24.243Z,34.86
2018-07-20T12:36:53.409Z,35.47
2018-07-20T12:39:22.662Z,36.78
2018-07-20T12:41:52.013Z,37.69
2018-07-20T12:44:21.530Z,38.58
2018-07-20T12:46:50.892Z,38.09
2018-07-20T12:49:20.168Z,38.18
2018-07-20T12:51:49.606Z,38.48
2018-07-20T12:54:18.842Z,38.99
2018-07-20T12:56:47.856Z,38.02
2018-07-20T12:59:16.780Z,38.39
2018-07-20T13:01:45.969Z,39.09
2018-07-20T13:04:14.907Z,39.20
2018-07-20T13:06:44.249Z,38.15
2018-07-20T13:09:13.935Z,38.48
2018-07-20T13:11:43.759Z,38.06
2018-07-20T13:14:13.497Z,38.44
2018-07-20T13:16:43.354Z,38.22
2018-07-20T13:19:12.652Z,38.48
2018-07-20T13:21:42.209Z,35.33
2018-07-20T13:24:11.495Z,35.77
2018-07-20T13:26:40.818Z,36.94
2018-07-20T13:29:09.994Z,36.05
2018-07-20T13:31:39.309Z,36.30
2018-07-20T13:34:08.782Z,34.77
2018-07-20T13:36:38.033Z,35.05
2018-07-20T13:39:10.195Z,36.13
2018-07-20T13:41:40.374Z,37.39
2018-07-20T13:44:09.800Z,36.78
2018-07-20T13:46:39.205Z,37.60
2018-07-20T13:49:08.474Z,37.85
2018-07-20T13:51:37.995Z,38.85
2018-07-20T13:54:07.254Z,38.87
2018-07-20T13:56:36.615Z,39.26
2018-07-20T13:59:05.865Z,39.46
2018-07-20T14:01:35.214Z,39.76
2018-07-20T14:04:04.498Z,40.16
2018-07-20T14:06:33.725Z,36.65
2018-07-20T14:09:03.177Z,37.73
2018-07-20T14:11:32.520Z,37.90
2018-07-20T14:14:01.915Z,38.46
2018-07-20T14:16:31.225Z,37.16
2018-07-20T14:19:00.622Z,37.85
2018-07-20T14:21:29.998Z,38.47
2018-07-20T14:23:59.328Z,38.06
2018-07-20T14:26:28.751Z,37.93
2018-07-20T14:28:58.000Z,37.53
2018-07-20T14:31:27.284Z,37.43
2018-07-20T14:33:56.528Z,37.97
2018-07-20T14:36:26.022Z,37.10
2018-07-20T14:38:55.291Z,37.82
2018-07-20T14:41:35.750Z,38.04
2018-07-20T14:44:05.032Z,38.15
2018-07-20T14:46:34.831Z,37.47
2018-07-20T14:49:05.086Z,38.01
2018-07-20T14:51:34.342Z,37.99
2018-07-20T14:54:03.814Z,37.91
2018-07-20T14:56:33.089Z,38.52
2018-07-20T14:59:02.422Z,38.73
2018-07-20T15:01:31.833Z,39.11
2018-07-20T15:04:01.117Z,36.93
2018-07-20T15:06:30.345Z,36.16
2018-07-20T15:08:59.712Z,36.32
2018-07-20T15:11:29.048Z,36.74
2018-07-20T15:13:58.430Z,36.37
2018-07-20T15:16:27.651Z,34.94
2018-07-20T15:18:56.938Z,35.43
2018-07-20T15:21:26.246Z,37.16
2018-07-20T15:23:55.798Z,37.26
2018-07-20T15:26:25.166Z,37.19
2018-07-20T15:28:54.514Z,37.82
2018-07-20T15:31:23.730Z,37.42
2018-07-20T15:33:53.195Z,36.41
2018-07-20T15:36:22.443Z,36.84
2018-07-20T15:38:51.656Z,37.03
2018-07-20T15:41:21.161Z,36.08
2018-07-20T15:43:50.518Z,34.45
2018-07-20T15:46:19.936Z,34.53
2018-07-20T15:48:49.365Z,35.27
2018-07-20T15:51:18.771Z,35.69
2018-07-20T15:53:48.151Z,35.75
2018-07-20T15:56:17.812Z,36.15
2018-07-20T15:58:47.350Z,35.90
2018-07-20T16:01:16.635Z,35.97
2018-07-20T16:03:45.956Z,36.26
2018-07-20T16:06:15.318Z,36.52
2018-07-20T16:08:44.700Z,36.63
2018-07-20T16:11:14.205Z,36.61
2018-07-20T16:13:43.502Z,36.56
2018-07-20T16:16:12.861Z,36.63
2018-07-20T16:18:42.334Z,36.74
2018-07-20T16:21:11.749Z,36.82
2018-07-20T16:23:40.946Z,36.85
2018-07-20T16:26:10.401Z,36.70
2018-07-20T16:28:39.713Z,36.61
2018-07-20T16:31:09.174Z,36.43
2018-07-20T16:33:38.378Z,36.39
2018-07-20T16:36:07.820Z,36.46
2018-07-20T16:38:37.111Z,36.54
2018-07-20T16:41:07.217Z,36.77
2018-07-20T16:43:36.410Z,36.71
2018-07-20T16:46:05.889Z,36.64
2018-07-20T16:48:35.258Z,36.74
2018-07-20T16:51:04.462Z,36.53
2018-07-20T16:53:33.834Z,36.43
2018-07-20T16:56:03.278Z,36.49
2018-07-20T16:58:32.870Z,36.22
2018-07-20T17:01:02.161Z,36.48
2018-07-20T17:03:31.659Z,36.10
2018-07-20T17:06:00.969Z,35.83
2018-07-20T17:08:30.313Z,35.66
2018-07-20T17:10:59.568Z,35.54
2018-07-20T17:13:28.902Z,35.94
2018-07-20T17:15:58.430Z,36.14
2018-07-20T17:18:27.880Z,36.20
2018-07-20T17:20:57.137Z,36.00
2018-07-20T17:23:26.504Z,35.70
2018-07-20T17:25:55.944Z,35.78
2018-07-20T17:28:25.381Z,35.97
2018-07-20T17:30:54.545Z,36.07
2018-07-20T17:33:23.978Z,35.98
2018-07-20T17:35:53.197Z,35.91
2018-07-20T17:38:22.745Z,36.08
2018-07-20T17:40:52.015Z,35.79
2018-07-20T17:43:21.530Z,35.55
2018-07-20T17:45:50.816Z,35.68
2018-07-20T17:48:20.230Z,35.27
2018-07-20T17:50:49.541Z,35.10
2018-07-20T17:53:18.904Z,34.85
2018-07-20T17:55:48.324Z,34.57
2018-07-20T17:58:17.709Z,34.84
2018-07-20T18:00:46.986Z,34.94
2018-07-20T18:03:16.462Z,34.99
2018-07-20T18:05:45.774Z,35.13
2018-07-20T18:08:15.018Z,35.19
2018-07-20T18:10:44.286Z,35.28
2018-07-20T18:13:13.722Z,35.38
2018-07-20T18:15:43.097Z,35.44
2018-07-20T18:18:12.323Z,35.43
2018-07-20T18:20:41.601Z,35.44
2018-07-20T18:23:11.339Z,35.29
2018-07-20T18:25:40.588Z,35.23
2018-07-20T18:28:09.733Z,35.21
2018-07-20T18:30:39.081Z,35.17
2018-07-20T18:33:08.462Z,35.11
2018-07-20T18:35:37.731Z,35.05
2018-07-20T18:38:07.126Z,34.97
2018-07-20T18:40:36.488Z,34.91
2018-07-20T18:43:05.737Z,34.85
2018-07-20T18:45:35.041Z,34.81
2018-07-20T18:48:04.962Z,34.77
2018-07-20T18:50:35.039Z,34.69
2018-07-20T18:53:04.405Z,34.65
2018-07-20T18:55:33.621Z,34.58
2018-07-20T18:58:02.881Z,34.49
2018-07-20T19:00:32.349Z,34.39
2018-07-20T19:03:01.682Z,34.28
2018-07-20T19:05:31.071Z,34.22
2018-07-20T19:08:00.375Z,34.05
2018-07-20T19:10:29.551Z,34.02
2018-07-20T19:12:58.912Z,33.99
2018-07-20T19:15:28.175Z,33.99
2018-07-20T19:17:57.647Z,33.98
2018-07-20T19:20:26.850Z,33.98
2018-07-20T19:22:56.297Z,33.87
2018-07-20T19:25:25.534Z,33.83
2018-07-20T19:27:54.787Z,33.82
2018-07-20T19:30:24.279Z,33.53
2018-07-20T19:32:53.702Z,33.48
2018-07-20T19:35:23.058Z,33.32
2018-07-20T19:37:52.413Z,33.03
2018-07-20T19:40:21.708Z,33.01
2018-07-20T19:42:50.682Z,33.03
2018-07-20T19:45:19.942Z,32.99
2018-07-20T19:47:49.209Z,32.88
2018-07-20T19:50:19.581Z,32.79
2018-07-20T19:52:48.882Z,32.64
2018-07-20T19:55:18.097Z,32.46
2018-07-20T19:57:47.334Z,32.34
2018-07-20T20:00:16.280Z,31.50
2018-07-20T20:02:45.618Z,31.64
2018-07-20T20:05:14.902Z,31.81
2018-07-20T20:07:44.343Z,31.94
2018-07-20T20:10:13.680Z,31.91
2018-07-20T20:12:43.013Z,31.84
2018-07-20T20:15:12.350Z,31.72
2018-07-20T20:17:41.601Z,31.71
2018-07-20T20:20:13.171Z,31.56
2018-07-20T20:22:43.195Z,31.52
2018-07-20T20:25:12.590Z,31.27
2018-07-20T20:27:42.224Z,31.40
2018-07-20T20:30:11.551Z,31.36
2018-07-20T20:32:40.764Z,31.42
2018-07-20T20:35:10.009Z,31.31
2018-07-20T20:37:39.456Z,31.33
2018-07-20T20:40:09.489Z,31.36
2018-07-20T20:42:38.769Z,31.30
2018-07-20T20:45:08.691Z,31.27
2018-07-20T20:47:38.164Z,31.22
2018-07-20T20:50:07.746Z,31.17
2018-07-20T20:52:37.362Z,31.07
2018-07-20T20:55:06.884Z,31.00
2018-07-20T20:57:36.258Z,30.83
2018-07-20T21:00:06.230Z,30.51
2018-07-20T21:02:35.332Z,30.38
2018-07-20T21:05:04.702Z,30.41
2018-07-20T21:07:33.937Z,30.11
2018-07-20T21:10:03.183Z,30.15
2018-07-20T21:12:32.543Z,29.99
2018-07-20T21:15:01.951Z,30.05
2018-07-20T21:17:31.201Z,30.05
2018-07-20T21:20:00.466Z,29.92
2018-07-20T21:22:30.117Z,29.87
2018-07-20T21:24:59.718Z,29.81
2018-07-20T21:27:29.144Z,29.78
2018-07-20T21:30:03.237Z,29.45
2018-07-20T21:32:32.521Z,29.48
2018-07-20T21:35:01.911Z,29.50
2018-07-20T21:37:31.311Z,29.51
2018-07-20T21:40:00.751Z,29.52
2018-07-20T21:42:30.099Z,29.36
2018-07-20T21:44:59.410Z,29.38
2018-07-20T21:47:29.036Z,29.47
2018-07-20T21:49:58.331Z,29.41
2018-07-20T21:52:27.596Z,29.39
2018-07-20T21:54:56.866Z,29.31
2018-07-20T21:57:26.210Z,29.28
2018-07-20T21:59:55.444Z,29.26
2018-07-20T22:02:24.816Z,29.15
2018-07-20T22:04:54.249Z,29.06
2018-07-20T22:07:23.623Z,29.05
2018-07-20T22:09:52.977Z,29.14
2018-07-20T22:12:22.196Z,29.14
2018-07-20T22:14:51.583Z,29.14
2018-07-20T22:17:20.803Z,29.12
2018-07-20T22:19:50.061Z,29.10
2018-07-20T22:22:19.309Z,29.07
2018-07-20T22:24:48.492Z,29.01
2018-07-20T22:27:17.537Z,29.02
2018-07-20T22:29:46.859Z,29.01
2018-07-20T22:32:16.116Z,29.10
2018-07-20T22:34:45.482Z,29.01
2018-07-20T22:37:14.834Z,28.44
2018-07-20T22:39:44.150Z,28.55
2018-07-20T22:42:13.523Z,28.22
2018-07-20T22:44:43.227Z,28.23
2018-07-20T22:47:12.590Z,27.52
2018-07-20T22:49:41.852Z,28.01
2018-07-20T22:52:11.221Z,27.83
2018-07-20T22:54:40.889Z,28.00
2018-07-20T22:57:10.300Z,27.45
2018-07-20T22:59:39.732Z,27.49
2018-07-20T23:02:08.950Z,27.68
2018-07-20T23:04:38.454Z,27.99
2018-07-20T23:07:07.741Z,27.77
2018-07-20T23:09:37.014Z,27.86
2018-07-20T23:12:06.382Z,28.15
2018-07-20T23:14:35.896Z,28.29
2018-07-20T23:17:05.269Z,28.16
2018-07-20T23:19:34.523Z,28.05
2018-07-20T23:22:03.895Z,28.21
2018-07-20T23:24:33.418Z,28.05
2018-07-20T23:27:02.780Z,28.14
2018-07-20T23:29:31.995Z,28.27
2018-07-20T23:32:01.387Z,28.26
2018-07-20T23:34:30.791Z,28.08
2018-07-20T23:36:59.991Z,27.92
2018-07-20T23:39:29.341Z,27.75
2018-07-20T23:41:58.571Z,27.77
2018-07-20T23:44:27.821Z,27.76
2018-07-20T23:46:57.083Z,27.87
2018-07-20T23:49:26.305Z,27.36
2018-07-20T23:51:55.629Z,26.96
2018-07-20T23:54:25.010Z,27.12
2018-07-20T23:56:54.295Z,27.26
2018-07-20T23:59:23.868Z,27.54
